createdAt,value
2019-02-15T00:02:17.578Z,14.33
2019-02-15T00:06:22.556Z,13.93
2019-02-15T00:10:27.443Z,12.60
2019-02-15T00:14:35.392Z,11.77
2019-02-15T00:18:54.092Z,12.43
2019-02-15T00:22:58.993Z,13.57
2019-02-15T00:27:03.899Z,12.27
2019-02-15T00:31:10.169Z,11.47
2019-02-15T00:35:15.062Z,9.70
2019-02-15T00:39:19.967Z,10.57
2019-02-15T00:43:24.864Z,9.07
2019-02-15T00:47:33.860Z,10.17
2019-02-15T00:51:46.376Z,10.77
2019-02-15T00:55:52.919Z,10.00
2019-02-15T01:00:15.661Z,11.87
2019-02-15T01:04:24.960Z,11.30
2019-02-15T01:08:37.573Z,10.23
2019-02-15T01:12:44.103Z,10.20
2019-02-15T01:16:49.005Z,9.30
2019-02-15T01:20:53.904Z,10.13
2019-02-15T01:24:59.668Z,9.37
2019-02-15T01:29:22.679Z,9.17
2019-02-15T01:33:44.200Z,9.33
2019-02-15T01:38:02.607Z,8.23
2019-02-15T01:42:11.824Z,7.80
2019-02-15T01:46:23.844Z,8.50
2019-02-15T01:50:28.740Z,7.50
2019-02-15T01:54:34.704Z,7.70
2019-02-15T01:58:39.592Z,7.03
2019-02-15T02:02:44.577Z,6.63
2019-02-15T02:06:49.451Z,7.20
2019-02-15T02:10:54.347Z,7.83
2019-02-15T02:14:59.247Z,7.37
2019-02-15T02:19:04.137Z,6.47
2019-02-15T02:23:09.043Z,6.70
2019-02-15T02:27:13.932Z,5.63
2019-02-15T02:31:18.899Z,5.90
2019-02-15T02:35:23.797Z,4.80
2019-02-15T02:39:28.876Z,4.67
2019-02-15T02:43:33.766Z,5.27
2019-02-15T02:47:38.653Z,5.20
2019-02-15T02:51:43.553Z,5.67
2019-02-15T02:55:48.451Z,5.27
2019-02-15T02:59:53.336Z,5.17
2019-02-15T03:03:58.235Z,4.87
2019-02-15T03:08:03.192Z,5.03
2019-02-15T03:12:08.080Z,4.50
2019-02-15T03:16:12.972Z,3.90
2019-02-15T03:20:17.887Z,4.60
2019-02-15T03:24:22.763Z,4.40
2019-02-15T03:28:28.827Z,4.70
2019-02-15T03:32:33.732Z,4.63
2019-02-15T03:36:40.250Z,4.07
2019-02-15T03:40:45.222Z,4.57
2019-02-15T03:44:51.162Z,3.93
2019-02-15T03:48:56.052Z,4.03
2019-02-15T03:53:00.936Z,4.13
2019-02-15T03:57:05.823Z,4.43
2019-02-15T04:01:10.702Z,4.93
2019-02-15T04:05:16.558Z,3.57
2019-02-15T04:09:21.449Z,4.97
2019-02-15T04:13:26.343Z,3.97
2019-02-15T04:17:32.222Z,3.70
2019-02-15T04:21:37.108Z,3.97
2019-02-15T04:25:42.000Z,4.67
2019-02-15T04:29:46.899Z,4.07
2019-02-15T04:33:51.792Z,3.93
2019-02-15T04:37:56.684Z,3.30
2019-02-15T04:42:01.651Z,3.30
2019-02-15T04:46:06.468Z,3.57
2019-02-15T04:50:11.380Z,3.87
2019-02-15T04:54:16.271Z,4.90
2019-02-15T04:58:21.179Z,6.23
2019-02-15T05:02:26.085Z,5.83
2019-02-15T05:06:30.975Z,5.10
2019-02-15T05:10:35.877Z,4.87
2019-02-15T05:14:40.777Z,4.60
2019-02-15T05:18:45.668Z,4.50
2019-02-15T05:22:50.567Z,4.30
2019-02-15T05:26:55.469Z,4.27
2019-02-15T05:31:00.381Z,4.07
2019-02-15T05:35:05.827Z,4.10
2019-02-15T05:39:10.723Z,4.07
2019-02-15T05:43:15.629Z,4.60
2019-02-15T05:47:20.511Z,3.80
2019-02-15T05:51:25.419Z,3.67
2019-02-15T05:55:30.326Z,4.33
2019-02-15T05:59:35.226Z,3.87
2019-02-15T06:03:40.111Z,4.10
2019-02-15T06:07:45.022Z,3.40
2019-02-15T06:11:49.914Z,3.93
2019-02-15T06:15:54.823Z,3.87
2019-02-15T06:19:59.702Z,4.77
2019-02-15T06:24:04.612Z,4.10
2019-02-15T06:28:10.496Z,4.30
2019-02-15T06:32:15.555Z,4.10
2019-02-15T06:36:20.458Z,5.57
2019-02-15T06:40:25.361Z,3.73
2019-02-15T06:44:30.331Z,3.23
2019-02-15T06:48:35.230Z,4.03
2019-02-15T06:52:40.129Z,4.60
2019-02-15T06:56:45.020Z,3.97
2019-02-15T07:05:19.055Z,4.30
2019-02-15T07:09:23.947Z,7.23
2019-02-15T07:13:28.843Z,7.23
2019-02-15T07:17:33.741Z,7.47
2019-02-15T07:21:38.637Z,8.10
2019-02-15T07:25:43.535Z,8.13
2019-02-15T07:29:48.418Z,8.10
2019-02-15T07:33:53.326Z,6.20
2019-02-15T07:37:58.199Z,6.37
2019-02-15T07:42:03.097Z,9.20
2019-02-15T07:46:07.997Z,8.67
2019-02-15T07:50:14.116Z,7.17
2019-02-15T07:54:19.008Z,7.37
2019-02-15T07:58:23.915Z,9.03
2019-02-15T08:02:28.801Z,7.97
2019-02-15T08:06:33.703Z,12.40
2019-02-15T08:10:39.487Z,10.87
2019-02-15T08:14:44.469Z,6.83
2019-02-15T08:18:49.356Z,6.50
2019-02-15T08:22:54.257Z,6.07
2019-02-15T08:26:59.144Z,7.57
2019-02-15T08:31:04.034Z,10.23
2019-02-15T08:35:10.920Z,8.87
2019-02-15T08:39:17.189Z,8.50
2019-02-15T08:43:22.073Z,6.43
2019-02-15T08:47:26.955Z,5.63
2019-02-15T08:51:32.974Z,6.30
2019-02-15T08:55:37.926Z,4.90
2019-02-15T08:59:42.828Z,5.17
2019-02-15T09:03:47.724Z,5.53
2019-02-15T09:07:52.627Z,4.83
2019-02-15T09:11:57.519Z,5.57
2019-02-15T09:16:10.027Z,5.63
2019-02-15T09:20:11.142Z,5.63
2019-02-15T09:24:17.004Z,4.53
2019-02-15T09:28:35.717Z,5.20
2019-02-15T09:32:40.598Z,5.93
2019-02-15T09:36:45.506Z,4.83
2019-02-15T09:40:50.398Z,4.93
2019-02-15T09:44:55.299Z,4.70
2019-02-15T09:49:00.189Z,5.13
2019-02-15T09:53:05.066Z,4.80
2019-02-15T09:57:09.968Z,4.53
2019-02-15T10:01:14.864Z,5.63
2019-02-15T10:05:20.742Z,5.73
2019-02-15T10:09:25.641Z,5.00
2019-02-15T10:13:30.526Z,6.00
2019-02-15T10:17:35.424Z,4.80
2019-02-15T10:21:40.319Z,4.10
2019-02-15T10:25:45.211Z,4.43
2019-02-15T10:29:50.115Z,3.90
2019-02-15T10:33:55.016Z,4.50
2019-02-15T10:37:59.884Z,4.30
2019-02-15T10:42:04.775Z,3.77
2019-02-15T10:46:09.668Z,4.80
2019-02-15T10:50:14.564Z,3.80
2019-02-15T10:54:19.447Z,4.60
2019-02-15T10:58:26.344Z,4.40
2019-02-15T11:02:30.943Z,4.40
2019-02-15T11:06:35.850Z,3.90
2019-02-15T11:10:40.754Z,4.20
2019-02-15T11:14:45.642Z,4.20
2019-02-15T11:18:50.536Z,4.20
2019-02-15T11:22:55.430Z,3.83
2019-02-15T11:27:00.337Z,3.97
2019-02-15T11:31:05.315Z,4.43
2019-02-15T11:35:11.950Z,4.00
2019-02-15T11:39:16.839Z,4.03
2019-02-15T11:43:21.744Z,3.57
2019-02-15T11:47:26.644Z,4.17
2019-02-15T11:51:31.526Z,3.53
2019-02-15T11:55:37.506Z,4.27
2019-02-15T11:59:42.406Z,3.97
2019-02-15T12:03:47.311Z,3.20
2019-02-15T12:07:52.206Z,3.17
2019-02-15T12:11:57.098Z,3.70
2019-02-15T12:16:01.995Z,3.73
2019-02-15T12:20:09.842Z,5.07
2019-02-15T12:24:14.748Z,3.50
2019-02-15T12:28:19.653Z,4.80
2019-02-15T12:32:24.552Z,3.73
2019-02-15T12:36:29.453Z,3.33
2019-02-15T12:40:34.373Z,3.80
2019-02-15T12:44:39.272Z,3.13
2019-02-15T12:48:44.172Z,2.80
2019-02-15T12:52:49.050Z,2.73
2019-02-15T12:56:53.961Z,3.50
2019-02-15T13:00:58.858Z,3.43
2019-02-15T13:05:04.125Z,2.60
2019-02-15T13:09:09.018Z,2.20
2019-02-15T13:13:13.903Z,2.03
2019-02-15T13:17:24.748Z,2.10
2019-02-15T13:21:25.400Z,2.00
2019-02-15T13:25:36.531Z,1.93
2019-02-15T13:29:37.980Z,2.50
2019-02-15T13:33:42.871Z,2.77
2019-02-15T13:37:47.771Z,2.90
2019-02-15T13:41:52.678Z,2.90
2019-02-15T13:45:57.581Z,3.30
2019-02-15T13:50:02.479Z,2.83
2019-02-15T13:54:07.377Z,3.23
2019-02-15T13:58:12.269Z,2.97
2019-02-15T14:02:17.169Z,2.93
2019-02-15T14:06:22.070Z,3.33
2019-02-15T14:10:26.972Z,2.90
2019-02-15T14:14:31.875Z,3.13
2019-02-15T14:18:36.762Z,3.83
2019-02-15T14:22:41.656Z,3.50
2019-02-15T14:26:46.555Z,3.93
2019-02-15T14:30:51.474Z,4.00
2019-02-15T14:34:56.354Z,4.37
2019-02-15T14:39:01.254Z,3.90
2019-02-15T14:43:07.121Z,3.70
2019-02-15T14:47:12.022Z,4.30
2019-02-15T14:51:16.928Z,4.13
2019-02-15T14:55:21.814Z,4.00
2019-02-15T14:59:26.714Z,4.00
2019-02-15T15:03:31.615Z,4.07
2019-02-15T15:07:36.548Z,3.97
2019-02-15T15:11:41.456Z,4.10
2019-02-15T15:15:46.358Z,4.10
2019-02-15T15:19:51.268Z,4.13
2019-02-15T15:23:56.160Z,3.77
2019-02-15T15:28:01.047Z,3.67
2019-02-15T15:32:05.962Z,4.13
2019-02-15T15:36:10.854Z,4.33
2019-02-15T15:40:17.196Z,3.93
2019-02-15T15:44:22.099Z,4.47
2019-02-15T15:48:27.006Z,4.60
2019-02-15T15:52:31.899Z,4.20
2019-02-15T15:56:36.794Z,3.80
2019-02-15T16:00:41.696Z,4.80
2019-02-15T16:04:46.596Z,4.73
2019-02-15T16:08:51.502Z,4.53
2019-02-15T16:12:56.405Z,5.13
2019-02-15T16:17:01.298Z,5.00
2019-02-15T16:21:06.233Z,5.53
2019-02-15T16:25:11.405Z,6.37
2019-02-15T16:29:16.316Z,5.97
2019-02-15T16:33:21.218Z,5.57
2019-02-15T16:37:26.111Z,6.30
2019-02-15T16:41:31.014Z,5.67
2019-02-15T16:45:35.921Z,5.20
2019-02-15T16:49:40.826Z,4.90
2019-02-15T16:53:45.719Z,4.77
2019-02-15T16:57:50.601Z,5.30
2019-02-15T17:01:55.493Z,5.00
2019-02-15T17:06:00.391Z,4.73
2019-02-15T17:10:08.014Z,4.20
2019-02-15T17:14:12.889Z,4.50
2019-02-15T17:18:17.771Z,4.07
2019-02-15T17:22:22.670Z,4.57
2019-02-15T17:26:27.574Z,4.60
2019-02-15T17:30:32.473Z,4.80
2019-02-15T17:34:37.356Z,5.07
2019-02-15T17:38:42.257Z,5.20
2019-02-15T17:42:47.156Z,15.90
2019-02-15T17:46:52.067Z,10.87
2019-02-15T17:50:56.967Z,7.23
2019-02-15T17:55:01.854Z,5.10
2019-02-15T17:59:06.757Z,4.73
2019-02-15T18:03:11.649Z,5.50
2019-02-15T18:07:16.538Z,4.90
2019-02-15T18:11:21.435Z,5.90
2019-02-15T18:15:26.323Z,5.70
2019-02-15T18:19:31.230Z,5.37
2019-02-15T18:23:36.137Z,5.57
2019-02-15T18:27:41.022Z,5.10
2019-02-15T18:31:45.913Z,5.67
2019-02-15T18:35:50.801Z,4.83
2019-02-15T18:39:55.704Z,4.90
2019-02-15T18:44:00.603Z,5.50
2019-02-15T18:48:05.499Z,5.47
2019-02-15T18:52:10.398Z,6.00
2019-02-15T18:56:15.289Z,5.60
2019-02-15T19:00:20.255Z,5.63
2019-02-15T19:04:25.173Z,5.00
2019-02-15T19:08:30.038Z,5.37
2019-02-15T19:12:34.945Z,5.47
2019-02-15T19:16:39.820Z,5.70
2019-02-15T19:20:44.714Z,5.37
2019-02-15T19:24:49.614Z,6.00
2019-02-15T19:28:54.510Z,5.73
2019-02-15T19:32:59.415Z,6.77
2019-02-15T19:37:04.287Z,6.73
2019-02-15T19:41:09.207Z,7.77
2019-02-15T19:45:14.107Z,6.53
2019-02-15T19:49:19.001Z,6.30
2019-02-15T19:53:23.903Z,6.53
2019-02-15T19:57:28.787Z,5.80
2019-02-15T20:01:33.750Z,6.83
2019-02-15T20:05:38.717Z,6.80
2019-02-15T20:09:43.612Z,6.13
2019-02-15T20:13:48.533Z,7.23
2019-02-15T20:17:53.419Z,7.10
2019-02-15T20:21:58.316Z,8.87
2019-02-15T20:26:03.252Z,7.67
2019-02-15T20:30:13.671Z,8.43
2019-02-15T20:34:18.568Z,7.17
2019-02-15T20:38:23.474Z,7.80
2019-02-15T20:42:28.351Z,7.83
2019-02-15T20:46:33.266Z,8.43
2019-02-15T20:50:38.159Z,8.17
2019-02-15T20:54:43.061Z,8.20
2019-02-15T20:58:48.031Z,8.73
2019-02-15T21:02:52.841Z,7.77
2019-02-15T21:06:57.751Z,8.20
2019-02-15T21:11:02.659Z,10.63
2019-02-15T21:15:10.314Z,7.20
2019-02-15T21:19:15.223Z,8.33
2019-02-15T21:23:20.121Z,6.73
2019-02-15T21:27:25.012Z,7.97
2019-02-15T21:31:29.906Z,7.07
2019-02-15T21:35:34.807Z,9.37
2019-02-15T21:39:39.705Z,7.07
2019-02-15T21:43:44.621Z,8.07
2019-02-15T21:47:49.569Z,6.97
2019-02-15T21:51:54.469Z,7.53
2019-02-15T21:55:59.373Z,6.70
2019-02-15T22:00:06.751Z,7.27
2019-02-15T22:04:13.124Z,7.03
2019-02-15T22:08:18.022Z,7.20
2019-02-15T22:12:22.921Z,6.97
2019-02-15T22:16:27.816Z,7.43
2019-02-15T22:20:32.718Z,7.17
2019-02-15T22:24:37.608Z,7.40
2019-02-15T22:28:42.509Z,7.37
2019-02-15T22:32:47.403Z,6.97
2019-02-15T22:36:52.294Z,6.37
2019-02-15T22:41:00.221Z,7.73
2019-02-15T22:45:05.660Z,6.37
2019-02-15T22:49:10.557Z,7.03
2019-02-15T22:53:15.454Z,7.10
2019-02-15T22:57:20.349Z,7.07
2019-02-15T23:01:25.435Z,8.33
2019-02-15T23:05:30.318Z,8.37
2019-02-15T23:09:35.222Z,7.10
2019-02-15T23:13:40.115Z,7.30
2019-02-15T23:17:45.011Z,7.73
2019-02-15T23:21:49.899Z,6.67
2019-02-15T23:25:54.799Z,7.37
2019-02-15T23:29:59.691Z,6.37
2019-02-15T23:34:04.596Z,6.90
2019-02-15T23:38:09.490Z,6.90
2019-02-15T23:42:14.373Z,6.47
2019-02-15T23:46:19.269Z,6.40
2019-02-15T23:50:24.163Z,6.93
2019-02-15T23:54:29.062Z,7.20
2019-02-15T23:58:33.963Z,8.00
